Gyumri, Armenia
Current Conditions -  °F | °C
As of 3:00 AM on Friday 24 Oct 2014 (Local Time) from UDSG Reporting Station
Broken Clouds Broken Clouds  
Wind Chill: 34°   Ceiling: 10000
Heat Index: 37°   Visibility: 6mi
Dew Point: 34°   Wind: 4mph
Humidity: 87%   Direction: NA
Pressure: 30.12"   Gusts: NA
Location:  40.78°N, 43.83°E
Report Text: UDSG 232200Z VRB02MPS 9000 SCT050 BKN100 03/01 Q1020 R02/CLRD70NOSIG
Loading
Personal Weather Stations






























Interactive Weather Map
Tropical Storm Tracking
New forecast layout! Learn more

10-Day Weather Forecast

Advertisements
Track Severe Weather on mobile